Hulan, China
Current Conditions -  °F | °C
As of 12:00 AM on Wednesday 28 Jan 2015 (Local Time) from ZYHB Reporting Station
Clear Clear  
Wind Chill: -18°   Ceiling: Unl
Heat Index: -4°   Visibility: 4mi
Dew Point: -11°   Wind: 7mph
Humidity: 71%   Direction: 250°WSW
Pressure: 30.48"   Gusts: NA
Location:  45.99°N, 126.6°E
Report Text: ZYHB 271600Z 25003MPS 6000 NSC M20/M24 Q1032 NOSIG
Loading
Personal Weather Stations






























Interactive Weather Map New forecast layout! Learn more

10-Day Weather Forecast

Advertisements
Track Severe Weather on mobile